createdAt,value
2022-12-11T00:02:13.913Z,-1.72
2022-12-11T00:04:40.643Z,-1.77
2022-12-11T00:07:07.403Z,-1.74
2022-12-11T00:09:34.083Z,-1.69
2022-12-11T00:12:02.537Z,-1.65
2022-12-11T00:14:29.646Z,-1.60
2022-12-11T00:16:56.379Z,-1.56
2022-12-11T00:19:23.411Z,-1.46
2022-12-11T00:21:50.083Z,-1.35
2022-12-11T00:24:16.859Z,-1.29
2022-12-11T00:26:43.525Z,-1.26
2022-12-11T00:29:14.572Z,-1.23
2022-12-11T00:31:42.241Z,-1.17
2022-12-11T00:34:09.488Z,-1.14
2022-12-11T00:36:36.140Z,-1.13
2022-12-11T00:39:03.109Z,-1.05
2022-12-11T00:41:30.042Z,-0.96
2022-12-11T00:43:56.888Z,-0.92
2022-12-11T00:46:23.861Z,-0.91
2022-12-11T00:48:50.821Z,-0.89
2022-12-11T00:51:18.130Z,-0.91
2022-12-11T00:53:44.860Z,-0.91
2022-12-11T00:56:14.138Z,-0.95
2022-12-11T00:58:40.780Z,-0.89
2022-12-11T01:01:23.632Z,-0.91
2022-12-11T01:03:52.168Z,-0.89
2022-12-11T01:06:22.002Z,-0.92
2022-12-11T01:08:49.016Z,-0.88
2022-12-11T01:11:17.285Z,-0.88
2022-12-11T01:13:43.974Z,-0.91
2022-12-11T01:16:16.314Z,-0.93
2022-12-11T01:18:43.061Z,-0.90
2022-12-11T01:21:13.447Z,-0.93
2022-12-11T01:23:40.670Z,-0.95
2022-12-11T01:26:13.527Z,-0.98
2022-12-11T01:28:41.539Z,-0.96
2022-12-11T01:31:10.186Z,-0.92
2022-12-11T01:33:37.534Z,-0.85
2022-12-11T01:36:16.800Z,-0.83
2022-12-11T01:38:44.011Z,-0.78
2022-12-11T01:41:10.810Z,-0.79
2022-12-11T01:44:00.793Z,-0.79
2022-12-11T01:46:28.739Z,-0.74
2022-12-11T01:48:56.364Z,-0.70
2022-12-11T01:51:24.408Z,-0.77
2022-12-11T01:53:57.300Z,-0.87
2022-12-11T01:56:24.793Z,-0.78
2022-12-11T01:58:56.485Z,-0.69
2022-12-11T02:01:37.183Z,-0.59
2022-12-11T02:04:04.682Z,-0.57
2022-12-11T02:06:43.236Z,-0.58
2022-12-11T02:09:14.727Z,-0.56
2022-12-11T02:12:19.949Z,-0.63
2022-12-11T02:15:11.414Z,-0.59
2022-12-11T02:17:47.000Z,-0.56
2022-12-11T02:20:40.416Z,-0.54
2022-12-11T02:23:09.693Z,-0.49
2022-12-11T02:26:01.700Z,-0.47
2022-12-11T02:28:46.292Z,-0.47
2022-12-11T02:31:16.962Z,-0.45
2022-12-11T02:33:59.635Z,-0.44
2022-12-11T02:36:30.540Z,-0.41
2022-12-11T02:39:01.174Z,-0.37
2022-12-11T02:41:30.372Z,-0.28
2022-12-11T02:43:58.042Z,-0.23
2022-12-11T02:46:25.590Z,-0.20
2022-12-11T02:48:54.321Z,-0.17
2022-12-11T02:51:28.662Z,-0.15
2022-12-11T02:53:59.066Z,-0.18
2022-12-11T02:56:33.361Z,-0.14
2022-12-11T02:59:08.005Z,-0.08
2022-12-11T03:01:34.887Z,-0.17
2022-12-11T03:04:01.810Z,-0.13
2022-12-11T03:06:36.336Z,-0.07
2022-12-11T03:09:05.158Z,-0.10
2022-12-11T03:11:31.761Z,-0.08
2022-12-11T03:13:59.470Z,-0.05
2022-12-11T03:17:00.114Z,-0.05
2022-12-11T03:19:36.648Z,-0.07
2022-12-11T03:22:14.568Z,-0.02
2022-12-11T03:24:46.375Z,0.03
2022-12-11T03:27:26.836Z,0.05
2022-12-11T03:30:05.606Z,0.08
2022-12-11T03:32:51.776Z,0.13
2022-12-11T03:35:27.980Z,0.16
2022-12-11T03:37:58.056Z,0.17
2022-12-11T03:40:28.022Z,0.16
2022-12-11T03:42:57.565Z,0.11
2022-12-11T03:45:27.257Z,0.14
2022-12-11T03:47:56.866Z,0.20
2022-12-11T03:50:28.577Z,0.19
2022-12-11T03:52:55.547Z,0.12
2022-12-11T03:55:22.722Z,0.18
2022-12-11T03:57:49.705Z,0.22
2022-12-11T04:00:20.273Z,0.25
2022-12-11T04:03:13.007Z,0.26
2022-12-11T04:05:52.362Z,0.25
2022-12-11T04:08:23.241Z,0.29
2022-12-11T04:11:13.387Z,0.31
2022-12-11T04:13:41.351Z,0.31
2022-12-11T04:16:08.610Z,0.32
2022-12-11T04:18:54.128Z,0.34
2022-12-11T04:21:39.786Z,0.32
2022-12-11T04:24:16.228Z,0.33
2022-12-11T04:26:45.087Z,0.37
2022-12-11T04:29:12.453Z,0.37
2022-12-11T04:31:39.724Z,0.32
2022-12-11T04:34:06.672Z,0.36
2022-12-11T04:36:33.497Z,0.35
2022-12-11T04:39:00.246Z,0.40
2022-12-11T04:41:28.970Z,0.39
2022-12-11T04:43:55.637Z,0.39
2022-12-11T04:46:24.491Z,0.42
2022-12-11T04:48:57.391Z,0.41
2022-12-11T04:51:24.661Z,0.43
2022-12-11T04:53:51.514Z,0.44
2022-12-11T04:56:19.186Z,0.41
2022-12-11T04:58:47.082Z,0.45
2022-12-11T05:01:20.200Z,0.45
2022-12-11T05:03:48.890Z,0.50
2022-12-11T05:06:15.752Z,0.49
2022-12-11T05:08:43.458Z,0.52
2022-12-11T05:11:14.545Z,0.53
2022-12-11T05:13:43.689Z,0.50
2022-12-11T05:16:13.380Z,0.50
2022-12-11T05:18:40.483Z,0.46
2022-12-11T05:21:11.110Z,0.45
2022-12-11T05:23:38.584Z,0.46
2022-12-11T05:26:17.507Z,0.49
2022-12-11T05:28:44.980Z,0.45
2022-12-11T05:31:17.483Z,0.51
2022-12-11T05:33:46.042Z,0.49
2022-12-11T05:36:22.650Z,0.50
2022-12-11T05:38:50.136Z,0.52
2022-12-11T05:41:19.483Z,0.50
2022-12-11T05:43:48.659Z,0.47
2022-12-11T05:46:19.404Z,0.48
2022-12-11T05:48:48.976Z,0.53
2022-12-11T05:51:17.289Z,0.56
2022-12-11T05:53:45.218Z,0.53
2022-12-11T05:56:15.618Z,0.55
2022-12-11T05:58:43.378Z,0.55
2022-12-11T06:01:13.152Z,0.50
2022-12-11T06:03:39.987Z,0.52
2022-12-11T06:06:07.654Z,0.51
2022-12-11T06:08:34.984Z,0.54
2022-12-11T06:11:02.334Z,0.53
2022-12-11T06:13:29.338Z,0.56
2022-12-11T06:15:56.028Z,0.58
2022-12-11T06:18:22.744Z,0.60
2022-12-11T06:20:49.395Z,0.58
2022-12-11T06:23:16.037Z,0.58
2022-12-11T06:25:42.705Z,0.60
2022-12-11T06:28:09.436Z,0.64
2022-12-11T06:30:37.624Z,0.67
2022-12-11T06:33:06.520Z,0.67
2022-12-11T06:35:37.355Z,0.69
2022-12-11T06:38:08.652Z,0.71
2022-12-11T06:40:35.312Z,0.70
2022-12-11T06:43:02.026Z,0.68
2022-12-11T06:45:28.739Z,0.67
2022-12-11T06:47:55.759Z,0.62
2022-12-11T06:50:22.450Z,0.62
2022-12-11T06:52:49.092Z,0.59
2022-12-11T06:55:15.781Z,0.63
2022-12-11T06:57:42.449Z,0.62
2022-12-11T07:00:09.845Z,0.58
2022-12-11T07:02:36.558Z,0.60
2022-12-11T07:05:05.855Z,0.54
2022-12-11T07:07:32.874Z,0.52
2022-12-11T07:10:07.325Z,0.55
2022-12-11T07:12:34.914Z,0.55
2022-12-11T07:15:03.876Z,0.58
2022-12-11T07:17:30.929Z,0.53
2022-12-11T07:19:57.725Z,0.46
2022-12-11T07:22:24.553Z,0.39
2022-12-11T07:24:51.314Z,0.34
2022-12-11T07:27:18.060Z,0.28
2022-12-11T07:29:45.108Z,0.21
2022-12-11T07:32:11.839Z,0.21
2022-12-11T07:34:38.930Z,0.21
2022-12-11T07:37:05.729Z,0.34
2022-12-11T07:39:32.388Z,0.29
2022-12-11T07:41:59.061Z,0.26
2022-12-11T07:44:26.194Z,0.24
2022-12-11T07:46:52.820Z,0.21
2022-12-11T07:49:19.487Z,0.22
2022-12-11T07:51:46.271Z,0.30
2022-12-11T07:54:16.730Z,0.25
2022-12-11T07:56:53.207Z,0.21
2022-12-11T07:59:21.113Z,0.23
2022-12-11T08:01:47.993Z,0.24
2022-12-11T08:04:15.960Z,0.22
2022-12-11T08:06:43.803Z,0.28
2022-12-11T08:09:19.080Z,0.27
2022-12-11T08:11:49.958Z,0.24
2022-12-11T08:14:18.884Z,0.20
2022-12-11T08:16:45.681Z,0.29
2022-12-11T08:19:13.394Z,0.30
2022-12-11T08:21:40.505Z,0.28
2022-12-11T08:24:08.120Z,0.23
2022-12-11T08:26:34.966Z,0.23
2022-12-11T08:29:03.164Z,0.21
2022-12-11T08:31:30.659Z,0.22
2022-12-11T08:33:58.143Z,0.23
2022-12-11T08:36:25.549Z,0.23
2022-12-11T08:38:54.852Z,0.23
2022-12-11T08:41:27.502Z,0.24
2022-12-11T08:43:55.414Z,0.24
2022-12-11T08:46:27.750Z,0.18
2022-12-11T08:48:54.973Z,0.23
2022-12-11T08:51:24.219Z,0.22
2022-12-11T08:53:51.445Z,0.25
2022-12-11T08:56:20.854Z,0.34
2022-12-11T08:58:47.918Z,0.35
2022-12-11T09:01:21.781Z,0.43
2022-12-11T09:03:49.781Z,0.40
2022-12-11T09:06:18.989Z,0.44
2022-12-11T09:08:52.305Z,0.46
2022-12-11T09:11:25.957Z,0.47
2022-12-11T09:13:53.420Z,0.50
2022-12-11T09:16:22.503Z,0.58
2022-12-11T09:18:51.367Z,0.58
2022-12-11T09:21:21.445Z,0.64
2022-12-11T09:23:48.172Z,0.64
2022-12-11T09:26:17.538Z,0.70
2022-12-11T09:28:46.942Z,0.74
2022-12-11T09:31:15.288Z,0.74
2022-12-11T09:33:42.037Z,0.71
2022-12-11T09:36:10.729Z,0.74
2022-12-11T09:38:37.967Z,0.76
2022-12-11T09:41:30.974Z,0.81
2022-12-11T09:44:21.024Z,0.80
2022-12-11T09:46:49.078Z,0.85
2022-12-11T09:49:47.131Z,0.85
2022-12-11T09:52:32.200Z,0.86
2022-12-11T09:55:15.023Z,0.97
2022-12-11T09:58:00.194Z,0.95
2022-12-11T10:00:37.605Z,0.98
2022-12-11T10:03:19.571Z,0.99
2022-12-11T10:06:04.284Z,1.04
2022-12-11T10:08:53.451Z,1.06
2022-12-11T10:11:31.946Z,1.07
2022-12-11T10:14:40.521Z,1.06
2022-12-11T10:17:17.961Z,1.07
2022-12-11T10:19:46.529Z,1.09
2022-12-11T10:22:34.960Z,1.05
2022-12-11T10:25:11.503Z,0.99
2022-12-11T10:27:40.602Z,1.03
2022-12-11T10:30:13.366Z,0.96
2022-12-11T10:32:48.895Z,0.94
2022-12-11T10:35:31.633Z,0.98
2022-12-11T10:38:20.646Z,0.89
2022-12-11T10:40:53.749Z,0.91
2022-12-11T10:43:20.540Z,0.94
2022-12-11T10:45:54.886Z,0.93
2022-12-11T10:48:22.226Z,0.89
2022-12-11T10:51:02.717Z,0.77
2022-12-11T10:53:31.429Z,0.76
2022-12-11T10:55:58.690Z,0.80
2022-12-11T10:58:28.841Z,0.85
2022-12-11T11:01:15.699Z,0.82
2022-12-11T11:04:15.508Z,0.78
2022-12-11T11:06:42.304Z,0.78
2022-12-11T11:09:30.197Z,0.81
2022-12-11T11:11:56.867Z,0.77
2022-12-11T11:14:25.308Z,0.76
2022-12-11T11:16:56.848Z,0.83
2022-12-11T11:19:37.066Z,0.76
2022-12-11T11:22:16.243Z,0.80
2022-12-11T11:25:05.219Z,0.74
2022-12-11T11:27:49.417Z,0.83
2022-12-11T11:30:29.643Z,0.85
2022-12-11T11:33:14.217Z,0.93
2022-12-11T11:35:53.022Z,0.91
2022-12-11T11:38:23.535Z,0.89
2022-12-11T11:41:14.665Z,0.99
2022-12-11T11:43:46.578Z,0.78
2022-12-11T11:46:28.858Z,0.72
2022-12-11T11:49:13.814Z,0.79
2022-12-11T11:51:53.551Z,0.87
2022-12-11T11:54:40.008Z,0.90
2022-12-11T11:57:29.792Z,0.92
2022-12-11T12:00:10.102Z,0.86
2022-12-11T12:02:38.150Z,0.94
2022-12-11T12:05:05.603Z,0.95
2022-12-11T12:08:14.319Z,0.95
2022-12-11T12:10:52.978Z,1.01
2022-12-11T12:13:55.356Z,1.02
2022-12-11T12:16:54.211Z,0.99
2022-12-11T12:19:29.871Z,1.04
2022-12-11T12:22:01.004Z,0.99
2022-12-11T12:24:33.646Z,0.99
2022-12-11T12:27:51.192Z,0.91
2022-12-11T12:30:22.406Z,0.81
2022-12-11T12:33:18.717Z,0.82
2022-12-11T12:36:06.436Z,0.83
2022-12-11T12:38:48.826Z,0.84
2022-12-11T12:41:24.160Z,0.91
2022-12-11T12:44:06.018Z,0.89
2022-12-11T12:47:24.622Z,0.88
2022-12-11T12:49:54.472Z,0.96
2022-12-11T12:52:33.245Z,0.95
2022-12-11T12:55:15.073Z,0.92
2022-12-11T12:57:48.115Z,0.81
2022-12-11T13:00:30.423Z,0.91
2022-12-11T13:02:58.346Z,0.89
2022-12-11T13:05:32.178Z,0.85
2022-12-11T13:08:06.532Z,0.86
2022-12-11T13:10:37.290Z,0.83
2022-12-11T13:13:06.277Z,0.83
2022-12-11T13:15:43.820Z,0.93
2022-12-11T13:18:36.967Z,0.93
2022-12-11T13:21:34.026Z,0.97
2022-12-11T13:24:15.349Z,1.01
2022-12-11T13:26:42.487Z,0.97
2022-12-11T13:29:39.109Z,0.99
2022-12-11T13:32:18.106Z,0.99
2022-12-11T13:34:54.614Z,1.04
2022-12-11T13:37:34.385Z,1.12
2022-12-11T13:40:06.169Z,1.19
2022-12-11T13:42:53.865Z,1.19
2022-12-11T13:45:29.901Z,1.23
2022-12-11T13:47:58.858Z,1.18
2022-12-11T13:50:31.739Z,1.24
2022-12-11T13:53:01.490Z,1.21
2022-12-11T13:55:31.232Z,1.28
2022-12-11T13:57:58.764Z,1.37
2022-12-11T14:00:30.222Z,1.40
2022-12-11T14:03:01.541Z,1.42
2022-12-11T14:05:29.037Z,1.43
2022-12-11T14:07:58.755Z,1.51
2022-12-11T14:10:32.182Z,1.49
2022-12-11T14:13:06.928Z,1.49
2022-12-11T14:15:36.260Z,1.55
2022-12-11T14:18:05.408Z,1.56
2022-12-11T14:20:34.233Z,1.58
2022-12-11T14:23:16.211Z,1.57
2022-12-11T14:25:53.439Z,1.59
2022-12-11T14:28:21.188Z,1.54
2022-12-11T14:30:51.835Z,1.45
2022-12-11T14:33:23.067Z,1.50
2022-12-11T14:35:52.290Z,1.55
2022-12-11T14:38:35.018Z,1.50
2022-12-11T14:41:08.181Z,1.59
2022-12-11T14:43:45.323Z,1.56
2022-12-11T14:46:21.409Z,1.54
2022-12-11T14:49:03.815Z,1.53
2022-12-11T14:51:39.767Z,1.56
2022-12-11T14:54:08.453Z,1.56
2022-12-11T14:56:36.273Z,1.59
2022-12-11T14:59:09.286Z,1.53
2022-12-11T15:01:39.535Z,1.62
2022-12-11T15:04:24.962Z,1.61
2022-12-11T15:06:52.604Z,1.62
2022-12-11T15:09:29.889Z,1.66
2022-12-11T15:12:10.668Z,1.63
2022-12-11T15:14:55.652Z,1.60
2022-12-11T15:17:24.159Z,1.57
2022-12-11T15:19:57.190Z,1.50
2022-12-11T15:22:30.550Z,1.52
2022-12-11T15:25:03.719Z,1.51
2022-12-11T15:27:36.981Z,1.38
2022-12-11T15:30:16.118Z,1.43
2022-12-11T15:32:43.058Z,1.38
2022-12-11T15:35:27.930Z,1.35
2022-12-11T15:38:01.142Z,1.32
2022-12-11T15:40:29.297Z,1.22
2022-12-11T15:42:57.004Z,1.15
2022-12-11T15:45:28.661Z,1.06
2022-12-11T15:47:55.727Z,1.02
2022-12-11T15:50:29.624Z,1.01
2022-12-11T15:52:57.266Z,1.00
2022-12-11T15:55:30.039Z,1.01
2022-12-11T15:58:14.206Z,1.10
2022-12-11T16:00:43.594Z,1.10
2022-12-11T16:03:17.802Z,1.04
2022-12-11T16:05:44.779Z,0.94
2022-12-11T16:08:16.993Z,0.88
2022-12-11T16:10:45.748Z,0.89
2022-12-11T16:13:13.422Z,0.85
2022-12-11T16:15:46.153Z,0.78
2022-12-11T16:18:16.323Z,0.85
2022-12-11T16:20:45.122Z,0.93
2022-12-11T16:23:13.493Z,0.85
2022-12-11T16:25:41.885Z,0.76
2022-12-11T16:28:10.679Z,0.75
2022-12-11T16:30:38.447Z,0.73
2022-12-11T16:33:12.141Z,0.68
2022-12-11T16:36:03.811Z,0.76
2022-12-11T16:38:30.563Z,0.70
2022-12-11T16:41:12.552Z,0.73
2022-12-11T16:43:40.404Z,0.73
2022-12-11T16:46:07.449Z,0.75
2022-12-11T16:48:34.502Z,0.76
2022-12-11T16:51:01.587Z,0.79
2022-12-11T16:53:28.300Z,0.79
2022-12-11T16:55:55.906Z,0.73
2022-12-11T16:58:22.788Z,0.71
2022-12-11T17:00:49.963Z,0.73
2022-12-11T17:03:18.166Z,0.73
2022-12-11T17:05:45.489Z,0.78
2022-12-11T17:08:12.298Z,0.78
2022-12-11T17:10:41.179Z,0.79
2022-12-11T17:13:08.372Z,0.87
2022-12-11T17:15:42.572Z,0.88
2022-12-11T17:18:10.788Z,0.89
2022-12-11T17:20:42.371Z,0.94
2022-12-11T17:23:11.174Z,0.90
2022-12-11T17:25:42.985Z,0.85
2022-12-11T17:28:11.242Z,0.85
2022-12-11T17:30:45.528Z,0.90
2022-12-11T17:33:12.803Z,0.85
2022-12-11T17:35:39.946Z,0.90
2022-12-11T17:38:20.400Z,0.96
2022-12-11T17:41:35.480Z,1.00
2022-12-11T17:44:37.246Z,0.87
2022-12-11T17:47:15.729Z,0.88
2022-12-11T17:49:48.844Z,0.94
2022-12-11T17:59:19.644Z,0.94
2022-12-11T18:05:58.793Z,0.82
2022-12-11T18:08:41.059Z,0.84
2022-12-11T18:11:16.648Z,0.78
2022-12-11T18:14:24.256Z,0.82
2022-12-11T18:16:57.084Z,0.83
2022-12-11T18:19:31.097Z,0.85
2022-12-11T18:27:03.903Z,0.79
2022-12-11T18:36:52.200Z,0.71
2022-12-11T18:49:09.657Z,0.64
2022-12-11T19:09:24.274Z,0.85
2022-12-11T19:12:00.307Z,0.86
2022-12-11T19:17:33.391Z,0.59
2022-12-11T19:20:18.812Z,0.55
2022-12-11T19:22:47.649Z,0.62
2022-12-11T19:25:14.544Z,0.60
2022-12-11T19:27:41.411Z,0.48
2022-12-11T19:30:11.820Z,0.46
2022-12-11T19:32:38.672Z,0.54
2022-12-11T19:35:16.787Z,0.62
2022-12-11T19:37:49.733Z,0.62
2022-12-11T19:40:16.685Z,0.61
2022-12-11T19:42:46.592Z,0.68
2022-12-11T19:45:14.347Z,0.68
2022-12-11T19:47:44.773Z,0.70
2022-12-11T19:50:11.450Z,0.63
2022-12-11T19:52:42.873Z,0.64
2022-12-11T19:55:15.211Z,0.58
2022-12-11T19:57:41.943Z,0.54
2022-12-11T20:00:09.052Z,0.57
2022-12-11T20:02:35.815Z,0.61
2022-12-11T20:05:02.495Z,0.60
2022-12-11T20:07:30.820Z,0.65
2022-12-11T20:10:00.258Z,0.60
2022-12-11T20:12:27.231Z,0.60
2022-12-11T20:14:54.111Z,0.60
2022-12-11T20:17:21.322Z,0.58
2022-12-11T20:19:48.570Z,0.45
2022-12-11T20:22:15.454Z,0.54
2022-12-11T20:24:42.134Z,0.47
2022-12-11T20:27:09.641Z,0.47
2022-12-11T20:29:37.444Z,0.36
2022-12-11T20:32:05.098Z,0.36
2022-12-11T20:34:32.384Z,0.35
2022-12-11T20:37:00.453Z,0.28
2022-12-11T20:39:27.160Z,0.22
2022-12-11T20:41:53.973Z,0.22
2022-12-11T20:44:21.022Z,0.25
2022-12-11T20:46:47.961Z,0.17
2022-12-11T20:49:14.742Z,0.29
2022-12-11T20:51:41.686Z,0.33
2022-12-11T20:54:08.725Z,0.23
2022-12-11T20:56:36.498Z,0.30
2022-12-11T20:59:03.484Z,0.32
2022-12-11T21:01:32.290Z,0.31
2022-12-11T21:03:59.615Z,0.31
2022-12-11T21:06:32.999Z,0.25
2022-12-11T21:09:02.129Z,0.24
2022-12-11T21:11:31.238Z,0.24
2022-12-11T21:13:58.161Z,0.23
2022-12-11T21:16:25.718Z,0.29
2022-12-11T21:18:52.485Z,0.36
2022-12-11T21:21:19.352Z,0.39
2022-12-11T21:23:46.117Z,0.43
2022-12-11T21:26:13.340Z,0.47
2022-12-11T21:28:41.385Z,0.49
2022-12-11T21:31:14.056Z,0.45
2022-12-11T21:33:40.974Z,0.35
2022-12-11T21:36:11.045Z,0.35
2022-12-11T21:38:38.688Z,0.38
2022-12-11T21:41:17.151Z,0.35
2022-12-11T21:44:32.918Z,0.41
2022-12-11T21:46:32.241Z,0.48
2022-12-11T21:48:59.075Z,0.44
2022-12-11T21:51:37.726Z,0.42
2022-12-11T21:54:09.275Z,0.49
2022-12-11T21:56:36.223Z,0.51
2022-12-11T21:59:04.480Z,0.55
2022-12-11T22:01:35.272Z,0.55
2022-12-11T22:04:02.086Z,0.58
2022-12-11T22:06:28.945Z,0.49
2022-12-11T22:08:56.158Z,0.40
2022-12-11T22:11:30.051Z,0.35
2022-12-11T22:13:57.056Z,0.37
2022-12-11T22:16:24.227Z,0.27
2022-12-11T22:18:51.178Z,0.37
2022-12-11T22:21:18.487Z,0.42
2022-12-11T22:23:45.234Z,0.32
2022-12-11T22:26:17.894Z,0.06
2022-12-11T22:28:44.593Z,0.09
2022-12-11T22:31:14.390Z,0.13
2022-12-11T22:33:45.250Z,-0.06
2022-12-11T22:36:13.263Z,-0.20
2022-12-11T22:38:40.049Z,0.02
2022-12-11T22:41:23.186Z,0.02
2022-12-11T22:43:50.585Z,0.06
2022-12-11T22:46:19.242Z,0.19
2022-12-11T22:48:45.996Z,-0.05
2022-12-11T22:51:13.136Z,-0.01
2022-12-11T22:53:40.933Z,-0.13
2022-12-11T22:56:09.457Z,-0.18
2022-12-11T22:58:36.528Z,-0.21
2022-12-11T23:01:07.958Z,-0.25
2022-12-11T23:03:34.640Z,-0.33
2022-12-11T23:06:05.600Z,-0.18
2022-12-11T23:08:33.172Z,-0.09
2022-12-11T23:11:00.085Z,-0.04
2022-12-11T23:13:26.770Z,0.01
2022-12-11T23:15:53.504Z,-0.13
2022-12-11T23:18:20.239Z,-0.33
2022-12-11T23:20:47.088Z,-0.22
2022-12-11T23:23:14.206Z,-0.24
2022-12-11T23:25:40.871Z,-0.27
2022-12-11T23:28:07.535Z,-0.21
2022-12-11T23:30:34.287Z,-0.26
2022-12-11T23:33:01.026Z,-0.20
2022-12-11T23:35:27.720Z,-0.25
2022-12-11T23:37:54.370Z,-0.17
2022-12-11T23:40:21.070Z,-0.09
2022-12-11T23:42:47.781Z,-0.10
2022-12-11T23:45:14.771Z,0.01
2022-12-11T23:47:41.683Z,0.00
2022-12-11T23:50:08.806Z,0.04
2022-12-11T23:52:35.661Z,-0.14
2022-12-11T23:55:02.343Z,-0.02
2022-12-11T23:57:28.973Z,-0.03
2022-12-11T23:59:55.619Z,-0.05
